sensor_id;sensor_type;location;lat;lon;timestamp;P1;durP1;ratioP1;P2;durP2;ratioP2
11653;SDS011;5883;48.818;9.114;2023-04-01T00:02:18;1.05;;;0.75;;
11653;SDS011;5883;48.818;9.114;2023-04-01T00:05:05;2.97;;;1.10;;
11653;SDS011;5883;48.818;9.114;2023-04-01T00:07:51;1.98;;;1.08;;
11653;SDS011;5883;48.818;9.114;2023-04-01T00:10:35;2.33;;;0.93;;
11653;SDS011;5883;48.818;9.114;2023-04-01T00:13:21;3.35;;;1.10;;
11653;SDS011;5883;48.818;9.114;2023-04-01T00:16:06;6.57;;;1.20;;
11653;SDS011;5883;48.818;9.114;2023-04-01T00:18:51;2.40;;;1.20;;
11653;SDS011;5883;48.818;9.114;2023-04-01T00:21:41;1.52;;;1.10;;
11653;SDS011;5883;48.818;9.114;2023-04-01T00:24:26;5.88;;;1.10;;
11653;SDS011;5883;48.818;9.114;2023-04-01T00:27:11;0.95;;;0.90;;
11653;SDS011;5883;48.818;9.114;2023-04-01T00:29:57;2.70;;;0.98;;
11653;SDS011;5883;48.818;9.114;2023-04-01T00:32:42;2.38;;;1.08;;
11653;SDS011;5883;48.818;9.114;2023-04-01T00:35:27;3.47;;;1.35;;
11653;SDS011;5883;48.818;9.114;2023-04-01T00:38:14;3.67;;;1.10;;
11653;SDS011;5883;48.818;9.114;2023-04-01T00:41:00;2.78;;;1.10;;
11653;SDS011;5883;48.818;9.114;2023-04-01T00:43:46;3.78;;;1.02;;
11653;SDS011;5883;48.818;9.114;2023-04-01T00:46:31;2.35;;;0.90;;
11653;SDS011;5883;48.818;9.114;2023-04-01T00:49:17;1.98;;;1.15;;
11653;SDS011;5883;48.818;9.114;2023-04-01T00:52:03;2.15;;;1.10;;
11653;SDS011;5883;48.818;9.114;2023-04-01T00:54:52;2.28;;;1.15;;
11653;SDS011;5883;48.818;9.114;2023-04-01T00:57:38;2.72;;;1.25;;
11653;SDS011;5883;48.818;9.114;2023-04-01T01:00:24;2.15;;;1.48;;
11653;SDS011;5883;48.818;9.114;2023-04-01T01:03:10;4.47;;;1.35;;
11653;SDS011;5883;48.818;9.114;2023-04-01T01:06:18;3.53;;;1.52;;
11653;SDS011;5883;48.818;9.114;2023-04-01T01:09:10;3.63;;;1.10;;
11653;SDS011;5883;48.818;9.114;2023-04-01T01:12:00;1.23;;;0.95;;
11653;SDS011;5883;48.818;9.114;2023-04-01T01:14:49;3.58;;;1.20;;
11653;SDS011;5883;48.818;9.114;2023-04-01T01:17:40;5.82;;;1.40;;
11653;SDS011;5883;48.818;9.114;2023-04-01T01:29:34;3.20;;;1.13;;
11653;SDS011;5883;48.818;9.114;2023-04-01T01:35:40;2.58;;;1.13;;
11653;SDS011;5883;48.818;9.114;2023-04-01T01:38:29;1.85;;;1.05;;
11653;SDS011;5883;48.818;9.114;2023-04-01T01:41:16;2.38;;;1.20;;
11653;SDS011;5883;48.818;9.114;2023-04-01T01:44:03;2.00;;;1.10;;
11653;SDS011;5883;48.818;9.114;2023-04-01T01:46:48;2.38;;;1.08;;
11653;SDS011;5883;48.818;9.114;2023-04-01T01:49:34;1.13;;;1.00;;
11653;SDS011;5883;48.818;9.114;2023-04-01T01:52:22;2.35;;;1.00;;
11653;SDS011;5883;48.818;9.114;2023-04-01T01:55:22;3.30;;;0.88;;
11653;SDS011;5883;48.818;9.114;2023-04-01T01:58:10;4.78;;;1.35;;
11653;SDS011;5883;48.818;9.114;2023-04-01T02:00:57;5.18;;;1.05;;
11653;SDS011;5883;48.818;9.114;2023-04-01T02:03:43;1.85;;;0.80;;
11653;SDS011;5883;48.818;9.114;2023-04-01T02:06:30;2.70;;;1.00;;
11653;SDS011;5883;48.818;9.114;2023-04-01T02:09:18;1.30;;;0.80;;
11653;SDS011;5883;48.818;9.114;2023-04-01T02:12:03;4.28;;;1.17;;
11653;SDS011;5883;48.818;9.114;2023-04-01T02:14:51;1.35;;;0.80;;
11653;SDS011;5883;48.818;9.114;2023-04-01T02:17:37;3.42;;;1.00;;
11653;SDS011;5883;48.818;9.114;2023-04-01T02:20:24;1.10;;;1.00;;
11653;SDS011;5883;48.818;9.114;2023-04-01T02:23:09;1.88;;;0.80;;
11653;SDS011;5883;48.818;9.114;2023-04-01T02:25:56;0.95;;;0.80;;
11653;SDS011;5883;48.818;9.114;2023-04-01T02:28:41;0.82;;;0.80;;
11653;SDS011;5883;48.818;9.114;2023-04-01T02:31:27;1.63;;;0.80;;
11653;SDS011;5883;48.818;9.114;2023-04-01T02:34:12;1.50;;;0.90;;
11653;SDS011;5883;48.818;9.114;2023-04-01T02:36:58;2.85;;;1.10;;
11653;SDS011;5883;48.818;9.114;2023-04-01T02:39:43;5.28;;;0.98;;
11653;SDS011;5883;48.818;9.114;2023-04-01T02:42:30;2.17;;;0.80;;
11653;SDS011;5883;48.818;9.114;2023-04-01T02:45:15;0.70;;;0.68;;
11653;SDS011;5883;48.818;9.114;2023-04-01T02:48:00;1.98;;;0.82;;
11653;SDS011;5883;48.818;9.114;2023-04-01T02:50:45;1.90;;;1.00;;
11653;SDS011;5883;48.818;9.114;2023-04-01T02:53:30;2.72;;;1.00;;
11653;SDS011;5883;48.818;9.114;2023-04-01T02:56:15;0.80;;;0.80;;
11653;SDS011;5883;48.818;9.114;2023-04-01T02:59:02;1.10;;;0.80;;
11653;SDS011;5883;48.818;9.114;2023-04-01T03:01:47;0.90;;;0.70;;
11653;SDS011;5883;48.818;9.114;2023-04-01T03:04:32;0.77;;;0.70;;
11653;SDS011;5883;48.818;9.114;2023-04-01T03:07:17;3.10;;;0.90;;
11653;SDS011;5883;48.818;9.114;2023-04-01T03:10:03;0.65;;;0.63;;
11653;SDS011;5883;48.818;9.114;2023-04-01T03:12:48;3.55;;;1.00;;
11653;SDS011;5883;48.818;9.114;2023-04-01T03:15:34;2.30;;;0.90;;
11653;SDS011;5883;48.818;9.114;2023-04-01T03:18:19;2.17;;;0.88;;
11653;SDS011;5883;48.818;9.114;2023-04-01T03:21:15;2.22;;;0.90;;
11653;SDS011;5883;48.818;9.114;2023-04-01T03:24:00;0.93;;;0.80;;
11653;SDS011;5883;48.818;9.114;2023-04-01T03:26:46;1.50;;;0.88;;
11653;SDS011;5883;48.818;9.114;2023-04-01T03:29:31;2.72;;;1.10;;
11653;SDS011;5883;48.818;9.114;2023-04-01T03:32:17;1.33;;;0.73;;
11653;SDS011;5883;48.818;9.114;2023-04-01T03:35:02;1.75;;;0.65;;
11653;SDS011;5883;48.818;9.114;2023-04-01T03:37:49;1.33;;;0.80;;
11653;SDS011;5883;48.818;9.114;2023-04-01T03:40:35;1.60;;;0.73;;
11653;SDS011;5883;48.818;9.114;2023-04-01T03:43:22;1.08;;;0.80;;
11653;SDS011;5883;48.818;9.114;2023-04-01T03:46:07;0.80;;;0.80;;
11653;SDS011;5883;48.818;9.114;2023-04-01T03:48:54;0.90;;;0.80;;
11653;SDS011;5883;48.818;9.114;2023-04-01T03:51:39;0.85;;;0.80;;
11653;SDS011;5883;48.818;9.114;2023-04-01T03:54:24;0.95;;;0.80;;
11653;SDS011;5883;48.818;9.114;2023-04-01T03:57:09;1.08;;;0.80;;
11653;SDS011;5883;48.818;9.114;2023-04-01T03:59:54;1.83;;;0.98;;
11653;SDS011;5883;48.818;9.114;2023-04-01T04:02:39;3.38;;;0.88;;
11653;SDS011;5883;48.818;9.114;2023-04-01T04:05:26;1.10;;;0.75;;
11653;SDS011;5883;48.818;9.114;2023-04-01T04:08:11;1.55;;;1.00;;
11653;SDS011;5883;48.818;9.114;2023-04-01T04:10:56;1.58;;;0.80;;
11653;SDS011;5883;48.818;9.114;2023-04-01T04:13:42;3.38;;;0.93;;
11653;SDS011;5883;48.818;9.114;2023-04-01T04:16:27;4.78;;;0.90;;
11653;SDS011;5883;48.818;9.114;2023-04-01T04:19:12;1.40;;;1.15;;
11653;SDS011;5883;48.818;9.114;2023-04-01T04:21:59;2.53;;;1.10;;
11653;SDS011;5883;48.818;9.114;2023-04-01T04:24:45;1.30;;;0.95;;
11653;SDS011;5883;48.818;9.114;2023-04-01T04:27:30;1.13;;;0.82;;
11653;SDS011;5883;48.818;9.114;2023-04-01T04:30:15;1.65;;;0.90;;
11653;SDS011;5883;48.818;9.114;2023-04-01T04:33:01;3.58;;;1.30;;
11653;SDS011;5883;48.818;9.114;2023-04-01T04:35:46;3.08;;;1.00;;
11653;SDS011;5883;48.818;9.114;2023-04-01T04:38:33;2.45;;;0.90;;
11653;SDS011;5883;48.818;9.114;2023-04-01T04:41:18;1.58;;;0.93;;
11653;SDS011;5883;48.818;9.114;2023-04-01T04:44:05;1.95;;;0.93;;
11653;SDS011;5883;48.818;9.114;2023-04-01T04:46:50;1.98;;;0.90;;
11653;SDS011;5883;48.818;9.114;2023-04-01T04:49:35;1.27;;;1.08;;
11653;SDS011;5883;48.818;9.114;2023-04-01T04:52:20;0.95;;;0.82;;
11653;SDS011;5883;48.818;9.114;2023-04-01T04:55:07;1.83;;;0.98;;
11653;SDS011;5883;48.818;9.114;2023-04-01T04:57:52;1.98;;;1.08;;
11653;SDS011;5883;48.818;9.114;2023-04-01T05:00:37;1.65;;;0.80;;
11653;SDS011;5883;48.818;9.114;2023-04-01T05:03:22;2.67;;;0.85;;
11653;SDS011;5883;48.818;9.114;2023-04-01T05:06:08;1.38;;;0.90;;
11653;SDS011;5883;48.818;9.114;2023-04-01T05:08:54;2.15;;;1.00;;
11653;SDS011;5883;48.818;9.114;2023-04-01T05:11:40;2.95;;;0.90;;
11653;SDS011;5883;48.818;9.114;2023-04-01T05:14:25;3.65;;;0.80;;
11653;SDS011;5883;48.818;9.114;2023-04-01T05:17:10;1.73;;;1.00;;
11653;SDS011;5883;48.818;9.114;2023-04-01T05:19:55;4.43;;;0.80;;
11653;SDS011;5883;48.818;9.114;2023-04-01T05:22:41;2.05;;;1.20;;
11653;SDS011;5883;48.818;9.114;2023-04-01T05:25:26;2.05;;;1.17;;
11653;SDS011;5883;48.818;9.114;2023-04-01T05:28:13;1.60;;;1.05;;
11653;SDS011;5883;48.818;9.114;2023-04-01T05:30:58;3.95;;;1.00;;
11653;SDS011;5883;48.818;9.114;2023-04-01T05:33:43;1.85;;;0.88;;
11653;SDS011;5883;48.818;9.114;2023-04-01T05:36:28;3.17;;;1.23;;
11653;SDS011;5883;48.818;9.114;2023-04-01T05:39:13;1.90;;;1.10;;
11653;SDS011;5883;48.818;9.114;2023-04-01T05:41:59;3.63;;;1.30;;
11653;SDS011;5883;48.818;9.114;2023-04-01T05:44:45;3.63;;;0.93;;
11653;SDS011;5883;48.818;9.114;2023-04-01T05:47:30;1.38;;;1.00;;
11653;SDS011;5883;48.818;9.114;2023-04-01T05:50:15;1.50;;;1.10;;
11653;SDS011;5883;48.818;9.114;2023-04-01T05:53:01;2.28;;;0.90;;
11653;SDS011;5883;48.818;9.114;2023-04-01T05:55:46;1.65;;;1.10;;
11653;SDS011;5883;48.818;9.114;2023-04-01T05:58:31;1.45;;;0.90;;
11653;SDS011;5883;48.818;9.114;2023-04-01T06:01:17;2.25;;;1.00;;
11653;SDS011;5883;48.818;9.114;2023-04-01T06:04:03;3.17;;;0.90;;
11653;SDS011;5883;48.818;9.114;2023-04-01T06:06:48;3.05;;;1.27;;
11653;SDS011;5883;48.818;9.114;2023-04-01T06:09:32;2.08;;;1.23;;
11653;SDS011;5883;48.818;9.114;2023-04-01T06:12:24;3.33;;;1.00;;
11653;SDS011;5883;48.818;9.114;2023-04-01T06:15:17;1.23;;;0.95;;
11653;SDS011;5883;48.818;9.114;2023-04-01T06:18:10;1.00;;;0.90;;
11653;SDS011;5883;48.818;9.114;2023-04-01T06:21:02;3.28;;;1.02;;
11653;SDS011;5883;48.818;9.114;2023-04-01T06:23:52;1.67;;;0.80;;
11653;SDS011;5883;48.818;9.114;2023-04-01T06:26:44;1.17;;;0.90;;
11653;SDS011;5883;48.818;9.114;2023-04-01T06:29:37;2.63;;;0.80;;
11653;SDS011;5883;48.818;9.114;2023-04-01T06:32:28;1.92;;;0.80;;
11653;SDS011;5883;48.818;9.114;2023-04-01T06:35:29;4.05;;;1.10;;
11653;SDS011;5883;48.818;9.114;2023-04-01T06:38:21;2.00;;;0.95;;
11653;SDS011;5883;48.818;9.114;2023-04-01T06:41:16;1.20;;;1.10;;
11653;SDS011;5883;48.818;9.114;2023-04-01T06:44:06;1.80;;;0.88;;
11653;SDS011;5883;48.818;9.114;2023-04-01T06:46:55;1.33;;;0.95;;
11653;SDS011;5883;48.818;9.114;2023-04-01T06:49:44;1.00;;;0.80;;
11653;SDS011;5883;48.818;9.114;2023-04-01T06:52:35;3.55;;;1.15;;
11653;SDS011;5883;48.818;9.114;2023-04-01T06:55:26;1.25;;;0.98;;
11653;SDS011;5883;48.818;9.114;2023-04-01T06:58:13;3.28;;;0.90;;
11653;SDS011;5883;48.818;9.114;2023-04-01T07:01:03;1.83;;;1.17;;
11653;SDS011;5883;48.818;9.114;2023-04-01T07:03:51;1.38;;;0.90;;
11653;SDS011;5883;48.818;9.114;2023-04-01T07:06:39;1.30;;;1.20;;
11653;SDS011;5883;48.818;9.114;2023-04-01T07:09:32;1.30;;;0.90;;
11653;SDS011;5883;48.818;9.114;2023-04-01T07:12:19;4.15;;;1.50;;
11653;SDS011;5883;48.818;9.114;2023-04-01T07:15:10;1.42;;;1.25;;
11653;SDS011;5883;48.818;9.114;2023-04-01T07:17:57;3.05;;;1.00;;
11653;SDS011;5883;48.818;9.114;2023-04-01T07:20:45;0.90;;;0.80;;
11653;SDS011;5883;48.818;9.114;2023-04-01T07:23:32;1.02;;;0.93;;
11653;SDS011;5883;48.818;9.114;2023-04-01T07:26:19;0.82;;;0.68;;
11653;SDS011;5883;48.818;9.114;2023-04-01T07:29:06;0.60;;;0.60;;
11653;SDS011;5883;48.818;9.114;2023-04-01T07:34:56;1.00;;;0.90;;
11653;SDS011;5883;48.818;9.114;2023-04-01T07:37:46;1.50;;;0.80;;
11653;SDS011;5883;48.818;9.114;2023-04-01T07:40:39;1.05;;;0.70;;
11653;SDS011;5883;48.818;9.114;2023-04-01T07:43:30;1.02;;;0.90;;
11653;SDS011;5883;48.818;9.114;2023-04-01T07:46:21;1.77;;;0.90;;
11653;SDS011;5883;48.818;9.114;2023-04-01T07:49:10;2.05;;;1.00;;
11653;SDS011;5883;48.818;9.114;2023-04-01T07:51:59;1.05;;;0.85;;
11653;SDS011;5883;48.818;9.114;2023-04-01T07:54:46;1.50;;;0.85;;
11653;SDS011;5883;48.818;9.114;2023-04-01T07:57:36;1.30;;;0.73;;
11653;SDS011;5883;48.818;9.114;2023-04-01T08:00:33;2.10;;;0.90;;
11653;SDS011;5883;48.818;9.114;2023-04-01T08:03:23;1.15;;;0.77;;
11653;SDS011;5883;48.818;9.114;2023-04-01T08:06:14;3.40;;;1.02;;
11653;SDS011;5883;48.818;9.114;2023-04-01T08:09:05;2.65;;;1.00;;
11653;SDS011;5883;48.818;9.114;2023-04-01T08:11:59;4.00;;;1.05;;
11653;SDS011;5883;48.818;9.114;2023-04-01T08:14:50;1.83;;;1.13;;
11653;SDS011;5883;48.818;9.114;2023-04-01T08:17:40;0.95;;;0.80;;
11653;SDS011;5883;48.818;9.114;2023-04-01T08:20:31;2.53;;;0.90;;
11653;SDS011;5883;48.818;9.114;2023-04-01T08:23:19;1.02;;;0.85;;
11653;SDS011;5883;48.818;9.114;2023-04-01T08:26:08;1.10;;;0.98;;
11653;SDS011;5883;48.818;9.114;2023-04-01T08:28:56;1.65;;;1.00;;
11653;SDS011;5883;48.818;9.114;2023-04-01T08:31:43;2.70;;;0.88;;
11653;SDS011;5883;48.818;9.114;2023-04-01T08:34:33;1.10;;;0.80;;
11653;SDS011;5883;48.818;9.114;2023-04-01T08:37:19;1.50;;;0.90;;
11653;SDS011;5883;48.818;9.114;2023-04-01T08:40:12;2.47;;;1.42;;
11653;SDS011;5883;48.818;9.114;2023-04-01T08:43:04;1.52;;;1.08;;
11653;SDS011;5883;48.818;9.114;2023-04-01T08:45:56;3.72;;;1.20;;
11653;SDS011;5883;48.818;9.114;2023-04-01T08:49:00;2.17;;;1.00;;
11653;SDS011;5883;48.818;9.114;2023-04-01T08:51:55;0.95;;;0.90;;
11653;SDS011;5883;48.818;9.114;2023-04-01T08:54:46;2.88;;;1.27;;
11653;SDS011;5883;48.818;9.114;2023-04-01T08:57:38;2.33;;;0.80;;
11653;SDS011;5883;48.818;9.114;2023-04-01T09:00:29;2.05;;;0.90;;
11653;SDS011;5883;48.818;9.114;2023-04-01T09:03:37;1.48;;;0.98;;
11653;SDS011;5883;48.818;9.114;2023-04-01T09:15:37;1.10;;;0.82;;
11653;SDS011;5883;48.818;9.114;2023-04-01T09:18:46;1.10;;;1.00;;
11653;SDS011;5883;48.818;9.114;2023-04-01T09:21:42;1.40;;;0.90;;
11653;SDS011;5883;48.818;9.114;2023-04-01T09:24:58;0.70;;;0.70;;
11653;SDS011;5883;48.818;9.114;2023-04-01T09:27:48;0.80;;;0.80;;
11653;SDS011;5883;48.818;9.114;2023-04-01T09:30:55;0.65;;;0.65;;
11653;SDS011;5883;48.818;9.114;2023-04-01T09:33:51;1.23;;;0.80;;
11653;SDS011;5883;48.818;9.114;2023-04-01T09:36:44;0.70;;;0.70;;
11653;SDS011;5883;48.818;9.114;2023-04-01T09:39:36;0.80;;;0.70;;
11653;SDS011;5883;48.818;9.114;2023-04-01T09:42:27;0.98;;;0.70;;
11653;SDS011;5883;48.818;9.114;2023-04-01T09:45:18;0.95;;;0.75;;
11653;SDS011;5883;48.818;9.114;2023-04-01T09:48:11;0.70;;;0.70;;
11653;SDS011;5883;48.818;9.114;2023-04-01T09:51:01;1.02;;;0.80;;
11653;SDS011;5883;48.818;9.114;2023-04-01T09:53:54;0.75;;;0.75;;
11653;SDS011;5883;48.818;9.114;2023-04-01T09:56:57;0.80;;;0.77;;
11653;SDS011;5883;48.818;9.114;2023-04-01T09:59:49;0.60;;;0.60;;
11653;SDS011;5883;48.818;9.114;2023-04-01T10:02:50;0.75;;;0.60;;
11653;SDS011;5883;48.818;9.114;2023-04-01T10:09:05;0.90;;;0.60;;
11653;SDS011;5883;48.818;9.114;2023-04-01T10:12:00;1.48;;;0.73;;
11653;SDS011;5883;48.818;9.114;2023-04-01T10:20:55;1.38;;;0.70;;
11653;SDS011;5883;48.818;9.114;2023-04-01T10:29:56;0.60;;;0.60;;
11653;SDS011;5883;48.818;9.114;2023-04-01T10:32:48;0.70;;;0.70;;
11653;SDS011;5883;48.818;9.114;2023-04-01T10:36:04;0.50;;;0.50;;
11653;SDS011;5883;48.818;9.114;2023-04-01T10:45:21;0.70;;;0.70;;
11653;SDS011;5883;48.818;9.114;2023-04-01T10:48:21;0.50;;;0.50;;
11653;SDS011;5883;48.818;9.114;2023-04-01T10:51:10;1.55;;;0.70;;
11653;SDS011;5883;48.818;9.114;2023-04-01T10:54:04;0.60;;;0.60;;
11653;SDS011;5883;48.818;9.114;2023-04-01T10:56:54;0.60;;;0.60;;
11653;SDS011;5883;48.818;9.114;2023-04-01T11:03:16;1.15;;;0.70;;
11653;SDS011;5883;48.818;9.114;2023-04-01T11:12:20;1.40;;;0.80;;
11653;SDS011;5883;48.818;9.114;2023-04-01T11:15:15;0.70;;;0.70;;
11653;SDS011;5883;48.818;9.114;2023-04-01T11:18:20;0.70;;;0.70;;
11653;SDS011;5883;48.818;9.114;2023-04-01T11:21:38;0.60;;;0.60;;
11653;SDS011;5883;48.818;9.114;2023-04-01T11:24:32;8.40;;;0.70;;
11653;SDS011;5883;48.818;9.114;2023-04-01T11:27:22;0.50;;;0.50;;
11653;SDS011;5883;48.818;9.114;2023-04-01T11:30:16;0.70;;;0.70;;
11653;SDS011;5883;48.818;9.114;2023-04-01T11:33:05;0.60;;;0.60;;
11653;SDS011;5883;48.818;9.114;2023-04-01T11:35:59;0.60;;;0.60;;
11653;SDS011;5883;48.818;9.114;2023-04-01T11:38:53;0.63;;;0.60;;
11653;SDS011;5883;48.818;9.114;2023-04-01T11:41:42;0.60;;;0.60;;
11653;SDS011;5883;48.818;9.114;2023-04-01T11:44:30;0.60;;;0.60;;
11653;SDS011;5883;48.818;9.114;2023-04-01T11:47:22;0.73;;;0.60;;
11653;SDS011;5883;48.818;9.114;2023-04-01T11:50:19;0.98;;;0.63;;
11653;SDS011;5883;48.818;9.114;2023-04-01T11:53:12;0.50;;;0.50;;
11653;SDS011;5883;48.818;9.114;2023-04-01T11:56:02;0.60;;;0.60;;
11653;SDS011;5883;48.818;9.114;2023-04-01T11:58:57;0.52;;;0.52;;
11653;SDS011;5883;48.818;9.114;2023-04-01T12:01:48;0.55;;;0.55;;
11653;SDS011;5883;48.818;9.114;2023-04-01T12:07:48;0.60;;;0.60;;
11653;SDS011;5883;48.818;9.114;2023-04-01T12:10:40;0.80;;;0.60;;
11653;SDS011;5883;48.818;9.114;2023-04-01T12:13:30;0.63;;;0.63;;
11653;SDS011;5883;48.818;9.114;2023-04-01T12:16:24;0.80;;;0.80;;
11653;SDS011;5883;48.818;9.114;2023-04-01T12:19:13;0.70;;;0.70;;
11653;SDS011;5883;48.818;9.114;2023-04-01T12:22:12;0.85;;;0.60;;
11653;SDS011;5883;48.818;9.114;2023-04-01T12:25:07;0.60;;;0.60;;
11653;SDS011;5883;48.818;9.114;2023-04-01T12:28:05;0.60;;;0.60;;
11653;SDS011;5883;48.818;9.114;2023-04-01T12:30:55;0.65;;;0.65;;
11653;SDS011;5883;48.818;9.114;2023-04-01T12:33:52;0.60;;;0.60;;
11653;SDS011;5883;48.818;9.114;2023-04-01T12:36:45;0.63;;;0.63;;
11653;SDS011;5883;48.818;9.114;2023-04-01T12:39:37;0.70;;;0.70;;
11653;SDS011;5883;48.818;9.114;2023-04-01T12:42:36;0.70;;;0.70;;
11653;SDS011;5883;48.818;9.114;2023-04-01T12:45:30;0.60;;;0.60;;
11653;SDS011;5883;48.818;9.114;2023-04-01T12:48:23;0.60;;;0.60;;
11653;SDS011;5883;48.818;9.114;2023-04-01T12:51:17;0.80;;;0.80;;
11653;SDS011;5883;48.818;9.114;2023-04-01T12:57:27;0.70;;;0.70;;
11653;SDS011;5883;48.818;9.114;2023-04-01T13:00:25;0.50;;;0.50;;
11653;SDS011;5883;48.818;9.114;2023-04-01T13:03:18;0.60;;;0.60;;
11653;SDS011;5883;48.818;9.114;2023-04-01T13:06:10;0.52;;;0.52;;
11653;SDS011;5883;48.818;9.114;2023-04-01T13:09:07;1.70;;;0.70;;
11653;SDS011;5883;48.818;9.114;2023-04-01T13:12:05;0.60;;;0.60;;
11653;SDS011;5883;48.818;9.114;2023-04-01T13:15:10;0.50;;;0.50;;
11653;SDS011;5883;48.818;9.114;2023-04-01T13:17:58;1.13;;;0.60;;
11653;SDS011;5883;48.818;9.114;2023-04-01T13:20:52;0.60;;;0.60;;
11653;SDS011;5883;48.818;9.114;2023-04-01T13:23:51;0.88;;;0.88;;
11653;SDS011;5883;48.818;9.114;2023-04-01T13:26:41;0.70;;;0.70;;
11653;SDS011;5883;48.818;9.114;2023-04-01T13:29:30;1.00;;;0.70;;
11653;SDS011;5883;48.818;9.114;2023-04-01T13:32:22;0.90;;;0.73;;
11653;SDS011;5883;48.818;9.114;2023-04-01T13:41:25;0.60;;;0.60;;
11653;SDS011;5883;48.818;9.114;2023-04-01T13:44:13;0.65;;;0.65;;
11653;SDS011;5883;48.818;9.114;2023-04-01T13:47:05;0.80;;;0.80;;
11653;SDS011;5883;48.818;9.114;2023-04-01T13:49:57;1.05;;;0.80;;
11653;SDS011;5883;48.818;9.114;2023-04-01T13:55:54;0.65;;;0.65;;
11653;SDS011;5883;48.818;9.114;2023-04-01T14:01:48;0.60;;;0.60;;
11653;SDS011;5883;48.818;9.114;2023-04-01T14:07:45;0.60;;;0.60;;
11653;SDS011;5883;48.818;9.114;2023-04-01T14:10:35;0.60;;;0.60;;
11653;SDS011;5883;48.818;9.114;2023-04-01T14:13:27;2.83;;;1.23;;
11653;SDS011;5883;48.818;9.114;2023-04-01T14:16:29;0.70;;;0.70;;
11653;SDS011;5883;48.818;9.114;2023-04-01T14:19:24;0.70;;;0.70;;
11653;SDS011;5883;48.818;9.114;2023-04-01T14:22:15;1.10;;;0.95;;
11653;SDS011;5883;48.818;9.114;2023-04-01T14:25:08;2.05;;;0.70;;
11653;SDS011;5883;48.818;9.114;2023-04-01T14:28:03;1.83;;;1.40;;
11653;SDS011;5883;48.818;9.114;2023-04-01T14:30:57;2.63;;;2.25;;
11653;SDS011;5883;48.818;9.114;2023-04-01T14:33:51;3.80;;;3.15;;
11653;SDS011;5883;48.818;9.114;2023-04-01T14:42:54;1.40;;;1.30;;
11653;SDS011;5883;48.818;9.114;2023-04-01T14:45:52;1.73;;;1.55;;
11653;SDS011;5883;48.818;9.114;2023-04-01T14:48:48;1.58;;;1.48;;
11653;SDS011;5883;48.818;9.114;2023-04-01T14:51:35;4.25;;;3.05;;
11653;SDS011;5883;48.818;9.114;2023-04-01T14:54:29;17.40;;;10.43;;
11653;SDS011;5883;48.818;9.114;2023-04-01T14:57:16;12.73;;;8.18;;
11653;SDS011;5883;48.818;9.114;2023-04-01T15:00:13;4.15;;;2.90;;
11653;SDS011;5883;48.818;9.114;2023-04-01T15:02:58;0.60;;;0.60;;
11653;SDS011;5883;48.818;9.114;2023-04-01T15:05:49;0.70;;;0.70;;
11653;SDS011;5883;48.818;9.114;2023-04-01T15:08:36;0.70;;;0.70;;
11653;SDS011;5883;48.818;9.114;2023-04-01T15:11:29;0.90;;;0.77;;
11653;SDS011;5883;48.818;9.114;2023-04-01T15:14:33;0.70;;;0.70;;
11653;SDS011;5883;48.818;9.114;2023-04-01T15:20:35;0.70;;;0.70;;
11653;SDS011;5883;48.818;9.114;2023-04-01T15:26:44;0.70;;;0.70;;
11653;SDS011;5883;48.818;9.114;2023-04-01T15:29:38;1.67;;;1.00;;
11653;SDS011;5883;48.818;9.114;2023-04-01T15:32:28;0.70;;;0.70;;
11653;SDS011;5883;48.818;9.114;2023-04-01T15:35:18;1.33;;;1.23;;
11653;SDS011;5883;48.818;9.114;2023-04-01T15:38:07;1.30;;;0.80;;
11653;SDS011;5883;48.818;9.114;2023-04-01T15:40:56;0.82;;;0.70;;
11653;SDS011;5883;48.818;9.114;2023-04-01T15:43:44;1.00;;;0.88;;
11653;SDS011;5883;48.818;9.114;2023-04-01T15:46:43;1.95;;;0.80;;
11653;SDS011;5883;48.818;9.114;2023-04-01T15:49:31;1.33;;;1.23;;
11653;SDS011;5883;48.818;9.114;2023-04-01T15:52:17;0.70;;;0.70;;
11653;SDS011;5883;48.818;9.114;2023-04-01T15:55:12;0.77;;;0.77;;
11653;SDS011;5883;48.818;9.114;2023-04-01T15:58:06;0.70;;;0.70;;
11653;SDS011;5883;48.818;9.114;2023-04-01T16:01:04;0.88;;;0.88;;
11653;SDS011;5883;48.818;9.114;2023-04-01T16:03:54;2.80;;;1.42;;
11653;SDS011;5883;48.818;9.114;2023-04-01T16:06:46;0.85;;;0.77;;
11653;SDS011;5883;48.818;9.114;2023-04-01T16:09:37;1.42;;;0.90;;
11653;SDS011;5883;48.818;9.114;2023-04-01T16:12:31;1.70;;;1.08;;
11653;SDS011;5883;48.818;9.114;2023-04-01T16:15:22;3.20;;;1.10;;
11653;SDS011;5883;48.818;9.114;2023-04-01T16:21:14;0.80;;;0.80;;
11653;SDS011;5883;48.818;9.114;2023-04-01T16:24:10;0.70;;;0.70;;
11653;SDS011;5883;48.818;9.114;2023-04-01T16:26:59;1.40;;;1.30;;
11653;SDS011;5883;48.818;9.114;2023-04-01T16:29:49;1.17;;;1.08;;
11653;SDS011;5883;48.818;9.114;2023-04-01T16:32:37;0.90;;;0.90;;
11653;SDS011;5883;48.818;9.114;2023-04-01T16:35:26;0.70;;;0.70;;
11653;SDS011;5883;48.818;9.114;2023-04-01T16:38:16;1.05;;;0.80;;
11653;SDS011;5883;48.818;9.114;2023-04-01T16:41:07;1.10;;;0.90;;
11653;SDS011;5883;48.818;9.114;2023-04-01T16:43:55;0.82;;;0.80;;
11653;SDS011;5883;48.818;9.114;2023-04-01T16:46:43;1.33;;;1.00;;
11653;SDS011;5883;48.818;9.114;2023-04-01T16:49:30;1.30;;;1.20;;
11653;SDS011;5883;48.818;9.114;2023-04-01T16:52:34;1.60;;;1.30;;
11653;SDS011;5883;48.818;9.114;2023-04-01T16:55:20;0.80;;;0.80;;
11653;SDS011;5883;48.818;9.114;2023-04-01T16:58:06;0.98;;;0.80;;
11653;SDS011;5883;48.818;9.114;2023-04-01T17:00:53;1.05;;;0.80;;
11653;SDS011;5883;48.818;9.114;2023-04-01T17:03:42;1.48;;;0.82;;
11653;SDS011;5883;48.818;9.114;2023-04-01T17:06:30;1.40;;;1.30;;
11653;SDS011;5883;48.818;9.114;2023-04-01T17:09:29;1.27;;;0.80;;
11653;SDS011;5883;48.818;9.114;2023-04-01T17:12:19;1.92;;;1.00;;
11653;SDS011;5883;48.818;9.114;2023-04-01T17:15:11;0.93;;;0.82;;
11653;SDS011;5883;48.818;9.114;2023-04-01T17:18:01;2.22;;;1.13;;
11653;SDS011;5883;48.818;9.114;2023-04-01T17:20:53;1.77;;;1.20;;
11653;SDS011;5883;48.818;9.114;2023-04-01T17:23:41;2.20;;;1.48;;
11653;SDS011;5883;48.818;9.114;2023-04-01T17:26:31;2.35;;;1.48;;
11653;SDS011;5883;48.818;9.114;2023-04-01T17:29:22;2.40;;;1.50;;
11653;SDS011;5883;48.818;9.114;2023-04-01T17:32:11;3.17;;;1.17;;
11653;SDS011;5883;48.818;9.114;2023-04-01T17:34:59;1.00;;;0.90;;
11653;SDS011;5883;48.818;9.114;2023-04-01T17:37:52;3.08;;;1.30;;
11653;SDS011;5883;48.818;9.114;2023-04-01T17:40:41;1.48;;;1.30;;
11653;SDS011;5883;48.818;9.114;2023-04-01T17:43:32;7.53;;;1.70;;
11653;SDS011;5883;48.818;9.114;2023-04-01T17:46:24;1.75;;;1.40;;
11653;SDS011;5883;48.818;9.114;2023-04-01T17:49:17;1.33;;;1.20;;
11653;SDS011;5883;48.818;9.114;2023-04-01T17:52:06;2.53;;;1.30;;
11653;SDS011;5883;48.818;9.114;2023-04-01T17:54:58;3.30;;;1.10;;
11653;SDS011;5883;48.818;9.114;2023-04-01T17:57:45;2.08;;;1.20;;
11653;SDS011;5883;48.818;9.114;2023-04-01T18:00:33;1.48;;;0.90;;
11653;SDS011;5883;48.818;9.114;2023-04-01T18:03:21;1.17;;;1.05;;
11653;SDS011;5883;48.818;9.114;2023-04-01T18:06:08;1.67;;;0.90;;
11653;SDS011;5883;48.818;9.114;2023-04-01T18:08:57;2.05;;;1.40;;
11653;SDS011;5883;48.818;9.114;2023-04-01T18:11:48;10.55;;;8.00;;
11653;SDS011;5883;48.818;9.114;2023-04-01T18:14:49;14.93;;;10.43;;
11653;SDS011;5883;48.818;9.114;2023-04-01T18:17:42;4.60;;;2.47;;
11653;SDS011;5883;48.818;9.114;2023-04-01T18:20:31;3.15;;;1.63;;
11653;SDS011;5883;48.818;9.114;2023-04-01T18:23:21;2.67;;;1.80;;
11653;SDS011;5883;48.818;9.114;2023-04-01T18:26:09;2.78;;;1.95;;
11653;SDS011;5883;48.818;9.114;2023-04-01T18:28:59;2.33;;;2.05;;
11653;SDS011;5883;48.818;9.114;2023-04-01T18:31:48;2.88;;;1.88;;
11653;SDS011;5883;48.818;9.114;2023-04-01T18:34:39;2.55;;;1.95;;
11653;SDS011;5883;48.818;9.114;2023-04-01T18:37:25;2.55;;;2.28;;
11653;SDS011;5883;48.818;9.114;2023-04-01T18:40:15;2.03;;;1.75;;
11653;SDS011;5883;48.818;9.114;2023-04-01T18:43:04;2.28;;;1.40;;
11653;SDS011;5883;48.818;9.114;2023-04-01T18:45:57;2.25;;;1.50;;
11653;SDS011;5883;48.818;9.114;2023-04-01T18:48:46;1.35;;;1.23;;
11653;SDS011;5883;48.818;9.114;2023-04-01T18:51:35;1.92;;;1.30;;
11653;SDS011;5883;48.818;9.114;2023-04-01T18:54:23;2.13;;;1.15;;